aviador You're here:

KBIX Decoded Metar

BILOXI in MS, USA
Report Time2017-03-30 17:58:00
UTC Time2017-03-30 18:38:07
Flight Rules vfr VFR
Wind320° at 05 kt
W.Decomp.*RWY 03: 1.6 kt HW 4.7 kt LCW
W.Rank320° ranks 30
Current wind is below 320° avg. (6.0)
Visibility9999 m
Phenomena:N/A
Clouds:Few 065 Hf
Expected CloudBase > 1,200 ft AGL from Temp-Dew spread
CeilingNone
Temp19°C (ISA +4)
Dew Point16°C (83% RH)
QNH1012 hPa
Density Alt784 ft
Elevation33 ft
Report Wrong Elevation
Raw Report
KBIX 301758Z AUTO 32005KT 10SM FEW065 19/16 A2989 RMK AO2 LTG DSNT
NE RAE28DZB28E29RAB29E31 TSE27 SLP125 P0003 60009 T01850163
10250 20176 55004=

Extra information for KBIX:More info

Metar Taf Metar & Taf Last 4 Metars F.Rules Stats Wind Profile Meteogram Temp Stats Airport Information Weather charts Add Link Nearby VenuesMetar ALERT Operation Metar Decoded Social comments

AIRNAV info for KBIX